Pinewood, Vermont
Current Conditions -  °F | °C
As of 12:14 PM on Thursday 23 Oct 2014 (Local Time) from KBTV Reporting Station
Overcast Overcast  
Wind Chill: 37°   Ceiling: 700
Heat Index: 44°   Visibility: 10mi
Dew Point: 40°   Wind: 16mph
Humidity: 85%   Direction: 350°N
Pressure: 29.95"   Gusts: 22mph
Location:  44.5358°N, 73.0548°W
Report Text: KBTV 231614Z 35014G19KT 10SM OVC007 07/04 A2995 RMK AO2 RAE03 CIG 006V012 P0000 T00670044
Loading
Personal Weather Stations






























Interactive Weather Map
Tropical Storm Tracking
New forecast layout! Learn more

10-Day Weather Forecast

Advertisements
Track Severe Weather on mobile